Time;durP1;ratioP1;P1;durP2;ratioP2;P2;SDS_P1;SDS_P2;PMS_P1;PMS_P2;Temp;Humidity;BMP_temperature;BMP_pressure;BME280_temperature;BME280_humidity;BME280_pressure;Samples;Min_cycle;Max_cycle;Signal;HPM_P1;HPM_P2
2022/06/24 00:01:52;;;;;;;;;;;;;;;25.23;46.58;95229.59;10438171;28;1997;-60
2022/06/24 00:06:52;;;;;;;;;;;;;;;25.25;46.66;95230.06;10477668;28;1893;-58
2022/06/24 00:12:00;;;;;;;;;;;;;;;25.28;46.73;95235.53;10478021;28;1918;-58
2022/06/24 00:17:01;;;;;;;;;;;;;;;25.31;46.51;95234.88;10458449;28;2076;-56
2022/06/24 00:22:08;;;;;;;;;;;;;;;25.33;46.61;95243.28;10473059;28;1899;-57
2022/06/24 00:27:16;;;;;;;;;;;;;;;25.34;46.75;95247.53;10477030;28;1873;-55
2022/06/24 00:32:30;;;;;;;;;;;;;;;25.36;46.85;95247.19;10473751;28;1910;-57
2022/06/24 00:37:31;;;;;;;;;;;;;;;25.37;46.60;95243.47;10472093;28;1945;-57
2022/06/24 00:42:32;;;;;;;;;;;;;;;25.38;46.59;95251.09;10476260;28;1984;-56
2022/06/24 00:47:32;;;;;;;;;;;;;;;25.40;46.77;95248.91;10458793;28;2005;-59
2022/06/24 00:52:36;;;;;;;;;;;;;;;25.40;46.98;95248.91;10460786;28;1977;-59
2022/06/24 00:57:36;;;;;;;;;;;;;;;25.41;46.84;95258.44;10488153;28;1846;-55
2022/06/24 01:02:37;;;;;;;;;;;;;;;25.43;46.91;95260.81;10476955;28;1975;-58
2022/06/24 01:07:37;;;;;;;;;;;;;;;25.41;46.93;95253.13;10444313;28;2004;-55
2022/06/24 01:12:38;;;;;;;;;;;;;;;25.42;47.08;95262.69;10472811;28;1976;-58
2022/06/24 01:17:42;;;;;;;;;;;;;;;25.44;46.88;95257.03;10459323;28;2005;-58
2022/06/24 01:22:47;;;;;;;;;;;;;;;25.44;46.83;95255.19;10474864;28;1872;-55
2022/06/24 01:28:06;;;;;;;;;;;;;;;25.44;47.17;95263.13;10460118;28;2030;-59
2022/06/24 01:33:09;;;;;;;;;;;;;;;25.44;46.89;95257.84;10457479;28;1947;-57
2022/06/24 01:38:10;;;;;;;;;;;;;;;25.45;47.08;95251.41;10474691;28;1998;-57
2022/06/24 01:43:10;;;;;;;;;;;;;;;25.46;47.03;95253.00;10465926;28;2047;-56
2022/06/24 01:48:11;;;;;;;;;;;;;;;25.47;46.93;95259.84;10492763;28;1957;-57
2022/06/24 01:53:11;;;;;;;;;;;;;;;25.46;47.03;95257.50;10476036;28;1967;-57
2022/06/24 01:58:11;;;;;;;;;;;;;;;25.47;46.94;95261.72;10468552;28;1978;-56
2022/06/24 02:03:12;;;;;;;;;;;;;;;25.47;46.74;95253.78;10482029;28;2030;-56
2022/06/24 02:08:12;;;;;;;;;;;;;;;25.46;47.00;95247.69;10479821;28;1923;-56
2022/06/24 02:13:28;;;;;;;;;;;;;;;25.46;47.24;95253.00;10474151;28;2080;-57
2022/06/24 02:18:29;;;;;;;;;;;;;;;25.48;47.19;95255.31;10482136;28;1975;-53
2022/06/24 02:23:30;;;;;;;;;;;;;;;25.47;47.20;95259.84;10477480;28;1994;-57
2022/06/24 02:28:30;;;;;;;;;;;;;;;25.48;47.19;95252.66;10482574;28;2017;-53
2022/06/24 02:33:31;;;;;;;;;;;;;;;25.49;46.99;95251.59;10481200;28;2154;-57
2022/06/24 02:38:32;;;;;;;;;;;;;;;25.49;47.19;95251.59;10462809;28;1911;-56
2022/06/24 02:43:33;;;;;;;;;;;;;;;25.49;46.98;95238.31;10482486;28;1835;-58
2022/06/24 02:48:34;;;;;;;;;;;;;;;25.49;47.12;95252.34;10480658;28;2185;-57
2022/06/24 02:53:34;;;;;;;;;;;;;;;25.49;46.74;95249.69;10480547;28;1912;-54
2022/06/24 02:58:34;;;;;;;;;;;;;;;25.49;46.86;95233.75;10480608;28;1881;-56
2022/06/24 03:03:36;;;;;;;;;;;;;;;25.48;46.88;95245.50;10498935;28;1878;-58
2022/06/24 03:08:36;;;;;;;;;;;;;;;25.50;46.92;95238.00;10461514;28;1906;-54
2022/06/24 03:13:36;;;;;;;;;;;;;;;25.50;46.85;95232.69;10493851;28;1800;-55
2022/06/24 03:18:37;;;;;;;;;;;;;;;25.51;46.79;95238.78;10461217;28;1974;-59
2022/06/24 03:23:37;;;;;;;;;;;;;;;25.50;46.85;95238.00;10466150;28;1829;-56
2022/06/24 03:28:38;;;;;;;;;;;;;;;25.51;46.54;95239.53;10476165;28;2024;-57
2022/06/24 03:33:38;;;;;;;;;;;;;;;25.51;46.78;95244.84;10465921;28;2253;-57
2022/06/24 03:38:38;;;;;;;;;;;;;;;25.51;46.82;95244.09;10463069;28;1825;-57
2022/06/24 03:43:38;;;;;;;;;;;;;;;25.51;46.88;95228.16;10461007;28;1819;-52
2022/06/24 03:48:39;;;;;;;;;;;;;;;25.51;46.73;95230.81;10459678;28;1976;-56
2022/06/24 03:53:39;;;;;;;;;;;;;;;25.51;46.29;95220.19;10461242;28;1829;-60
2022/06/24 03:58:40;;;;;;;;;;;;;;;25.52;46.77;95214.56;10462076;28;1848;-58
2022/06/24 04:03:40;;;;;;;;;;;;;;;25.52;46.52;95213.78;10478785;28;1892;-55
2022/06/24 04:08:40;;;;;;;;;;;;;;;25.11;47.50;95219.63;10476277;28;1971;-56
2022/06/24 04:13:41;;;;;;;;;;;;;;;24.75;47.68;95222.63;10457567;28;1797;-58
2022/06/24 04:18:41;;;;;;;;;;;;;;;24.60;47.98;95227.59;10474808;28;1866;-56
2022/06/24 04:23:42;;;;;;;;;;;;;;;24.50;48.25;95233.19;10476154;28;1861;-55
2022/06/24 04:28:42;;;;;;;;;;;;;;;24.39;48.31;95238.00;10477969;28;1910;-57
2022/06/24 04:33:43;;;;;;;;;;;;;;;24.27;48.38;95229.91;10477121;28;1839;-57
2022/06/24 04:38:44;;;;;;;;;;;;;;;24.20;48.65;95238.28;10475380;28;1826;-58
2022/06/24 04:43:45;;;;;;;;;;;;;;;24.15;48.72;95241.06;10477895;28;1839;-56
2022/06/24 04:48:45;;;;;;;;;;;;;;;24.10;48.91;95241.22;10458002;28;1906;-56
2022/06/24 04:53:45;;;;;;;;;;;;;;;24.00;48.71;95238.84;10479199;28;1942;-55
2022/06/24 04:58:46;;;;;;;;;;;;;;;23.93;48.83;95246.44;10459464;28;1828;-57
2022/06/24 05:03:46;;;;;;;;;;;;;;;23.87;48.91;95245.00;10463873;28;1871;-56
2022/06/24 05:08:47;;;;;;;;;;;;;;;23.86;48.77;95246.13;10456933;28;1914;-58
2022/06/24 05:13:47;;;;;;;;;;;;;;;23.84;48.67;95256.22;10456114;28;1854;-56
2022/06/24 05:18:48;;;;;;;;;;;;;;;23.81;48.67;95259.47;10484280;28;1882;-57
2022/06/24 05:23:48;;;;;;;;;;;;;;;23.80;48.67;95260.53;10461268;28;1861;-56
2022/06/24 05:28:48;;;;;;;;;;;;;;;23.77;48.88;95265.66;10460074;28;1926;-55
2022/06/24 05:33:48;;;;;;;;;;;;;;;23.75;49.26;95255.41;10454628;28;1956;-56
2022/06/24 05:38:49;;;;;;;;;;;;;;;23.73;49.45;95252.28;10457187;28;1839;-57
2022/06/24 05:43:49;;;;;;;;;;;;;;;23.68;49.41;95247.09;10458454;28;1858;-54
2022/06/24 05:48:50;;;;;;;;;;;;;;;23.64;49.49;95245.41;10455937;28;1997;-58
2022/06/24 05:59:10;;;;;;;;;;;;;;;23.63;49.34;95236.66;10473048;28;1863;-59
2022/06/24 06:04:12;;;;;;;;;;;;;;;23.59;49.19;95235.72;10477163;28;1843;-56
2022/06/24 06:09:12;;;;;;;;;;;;;;;23.58;49.38;95233.34;10469913;28;2025;-60
2022/06/24 06:14:12;;;;;;;;;;;;;;;23.56;49.26;95238.97;10473459;28;1844;-59
2022/06/24 06:19:13;;;;;;;;;;;;;;;23.55;49.26;95231.34;10472157;28;1887;-58
2022/06/24 06:24:13;;;;;;;;;;;;;;;23.53;49.36;95229.00;10476013;28;1908;-56
2022/06/24 06:29:13;;;;;;;;;;;;;;;23.47;48.82;95234.72;10476640;28;1989;-57
2022/06/24 06:34:14;;;;;;;;;;;;;;;23.44;49.11;95246.69;10493397;28;1913;-60
2022/06/24 06:39:15;;;;;;;;;;;;;;;23.48;48.72;95242.34;10477408;28;1832;-59
2022/06/24 06:44:16;;;;;;;;;;;;;;;23.55;49.07;95242.72;10470056;28;1998;-57
2022/06/24 06:49:16;;;;;;;;;;;;;;;23.62;48.60;95232.44;10442411;28;2030;-56
2022/06/24 06:54:16;;;;;;;;;;;;;;;23.63;48.21;95234.03;10459839;28;1811;-58
2022/06/24 06:59:17;;;;;;;;;;;;;;;23.68;48.26;95231.22;10454547;28;2208;-55
2022/06/24 07:04:17;;;;;;;;;;;;;;;23.72;48.16;95213.66;10475360;28;1904;-57
2022/06/24 07:09:18;;;;;;;;;;;;;;;23.77;47.96;95205.59;10477763;28;1981;-57
2022/06/24 07:14:18;;;;;;;;;;;;;;;23.83;48.39;95207.00;10461722;28;1778;-58
2022/06/24 07:19:18;;;;;;;;;;;;;;;23.87;47.93;95196.56;10477580;28;1817;-58
2022/06/24 07:24:19;;;;;;;;;;;;;;;23.88;48.40;95193.66;10462084;28;1835;-58
2022/06/24 07:29:19;;;;;;;;;;;;;;;23.94;48.26;95197.72;10489392;28;2066;-57
2022/06/24 07:34:21;;;;;;;;;;;;;;;23.99;48.37;95204.69;10455504;28;1815;-58
2022/06/24 07:39:21;;;;;;;;;;;;;;;24.07;48.28;95207.41;10473423;28;1866;-58
2022/06/24 07:44:21;;;;;;;;;;;;;;;24.10;48.09;95196.22;10475495;28;1926;-58
2022/06/24 07:49:22;;;;;;;;;;;;;;;24.11;47.93;95199.66;10477117;28;1942;-58
2022/06/24 07:54:24;;;;;;;;;;;;;;;24.08;48.29;95190.44;10458319;28;1776;-55
2022/06/24 07:59:24;;;;;;;;;;;;;;;24.07;48.08;95191.53;10454196;28;1812;-54
2022/06/24 08:04:24;;;;;;;;;;;;;;;24.09;48.46;95205.22;10477563;28;1846;-55
2022/06/24 08:09:25;;;;;;;;;;;;;;;24.15;48.63;95196.03;10475392;28;1909;-59
2022/06/24 08:14:26;;;;;;;;;;;;;;;24.18;48.74;95199.94;10486061;28;1938;-58
2022/06/24 08:19:26;;;;;;;;;;;;;;;24.18;49.11;95192.78;10473659;28;1824;-57
2022/06/24 08:24:26;;;;;;;;;;;;;;;24.20;49.20;95185.31;10475689;28;1859;-56
2022/06/24 08:29:26;;;;;;;;;;;;;;;24.20;49.02;95182.66;10457910;28;1969;-56
2022/06/24 08:34:27;;;;;;;;;;;;;;;24.14;48.90;95178.63;10458617;28;1962;-58
2022/06/24 08:39:27;;;;;;;;;;;;;;;24.12;48.67;95172.84;10456067;28;1801;-58
2022/06/24 08:44:27;;;;;;;;;;;;;;;24.13;48.31;95161.16;10461726;28;1781;-59
2022/06/24 08:49:28;;;;;;;;;;;;;;;24.06;48.11;95160.06;10482629;28;1980;-59
2022/06/24 08:54:28;;;;;;;;;;;;;;;24.00;48.31;95159.41;10457478;28;1972;-59
2022/06/24 08:59:29;;;;;;;;;;;;;;;24.08;48.27;95156.03;10443029;28;1816;-56
2022/06/24 09:04:31;;;;;;;;;;;;;;;24.00;47.56;95162.06;10474597;28;1848;-58
2022/06/24 09:09:32;;;;;;;;;;;;;;;23.97;47.52;95159.22;10474141;28;1980;-60
2022/06/24 09:14:45;;;;;;;;;;;;;;;24.04;47.46;95152.44;10468957;28;1861;-58
2022/06/24 09:19:45;;;;;;;;;;;;;;;24.04;47.82;95139.19;10455441;28;1807;-59
2022/06/24 09:24:47;;;;;;;;;;;;;;;23.94;47.94;95147.41;10461766;28;1903;-57
2022/06/24 09:29:48;;;;;;;;;;;;;;;24.00;47.50;95137.44;10456959;28;1906;-60
2022/06/24 09:35:05;;;;;;;;;;;;;;;24.01;47.76;95131.84;10484115;28;1795;-60
2022/06/24 09:40:17;;;;;;;;;;;;;;;24.15;47.87;95129.84;10482890;28;1873;-59
2022/06/24 09:45:18;;;;;;;;;;;;;;;24.21;47.49;95120.66;10483008;28;1819;-60
2022/06/24 09:50:18;;;;;;;;;;;;;;;24.31;47.68;95101.03;10452443;28;1913;-58
2022/06/24 09:55:19;;;;;;;;;;;;;;;24.37;47.08;95101.66;10458342;28;1772;-58
2022/06/24 10:05:42;;;;;;;;;;;;;;;24.52;47.12;95080.78;10497095;28;1781;-62
2022/06/24 10:10:44;;;;;;;;;;;;;;;24.57;46.74;95071.84;10462232;28;1973;-62
2022/06/24 10:15:44;;;;;;;;;;;;;;;24.58;45.12;95078.72;10490509;28;1809;-59
2022/06/24 10:20:45;;;;;;;;;;;;;;;24.64;45.18;95069.53;10462511;28;1722;-56
2022/06/24 10:25:48;;;;;;;;;;;;;;;24.62;44.52;95059.25;10459507;28;1845;-56
2022/06/24 10:30:58;;;;;;;;;;;;;;;24.61;43.68;95048.94;10480090;28;2036;-58
2022/06/24 10:36:03;;;;;;;;;;;;;;;24.57;43.48;95040.84;10459740;28;1807;-56
2022/06/24 10:41:03;;;;;;;;;;;;;;;24.54;42.06;95040.72;10475173;28;1854;-58
2022/06/24 10:46:13;;;;;;;;;;;;;;;24.50;42.50;95037.91;10492661;28;1693;-58
2022/06/24 10:51:13;;;;;;;;;;;;;;;24.60;43.56;95028.84;10467386;28;1977;-55
2022/06/24 10:56:32;;;;;;;;;;;;;;;24.61;43.10;95025.88;10459302;28;1870;-56
2022/06/24 11:01:33;;;;;;;;;;;;;;;24.61;43.49;95035.69;10477314;28;1965;-57
2022/06/24 11:06:34;;;;;;;;;;;;;;;24.65;42.87;95031.31;10475474;28;1812;-59
2022/06/24 11:11:35;;;;;;;;;;;;;;;24.70;43.41;95031.16;10478407;28;1972;-58
2022/06/24 11:16:35;;;;;;;;;;;;;;;24.69;43.37;95024.31;10456650;28;1844;-57
2022/06/24 11:21:44;;;;;;;;;;;;;;;24.69;43.06;95006.50;10493946;28;1889;-57
2022/06/24 11:27:03;;;;;;;;;;;;;;;24.72;43.25;95003.25;10477823;28;1808;-57
2022/06/24 11:32:03;;;;;;;;;;;;;;;24.79;44.13;95003.53;10466195;28;1914;-58
2022/06/24 11:37:05;;;;;;;;;;;;;;;24.87;44.13;94997.44;10495328;28;1824;-55
2022/06/24 11:42:05;;;;;;;;;;;;;;;24.93;44.39;94990.88;10489051;28;1852;-61
2022/06/24 11:47:06;;;;;;;;;;;;;;;24.91;44.83;94982.47;10470317;28;1848;-58
2022/06/24 11:52:06;;;;;;;;;;;;;;;24.93;44.84;94974.19;10475126;28;2005;-55
2022/06/24 11:57:08;;;;;;;;;;;;;;;25.02;44.84;94982.84;10475871;28;1852;-57
2022/06/24 12:02:11;;;;;;;;;;;;;;;25.04;44.72;94978.78;10458439;28;1814;-54
2022/06/24 12:07:11;;;;;;;;;;;;;;;25.12;44.81;94961.31;10475709;28;1888;-54
2022/06/24 12:12:12;;;;;;;;;;;;;;;25.10;44.82;94963.47;10475466;28;1914;-57
2022/06/24 12:17:13;;;;;;;;;;;;;;;25.11;44.74;94970.34;10473783;28;1856;-55
2022/06/24 12:22:14;;;;;;;;;;;;;;;25.11;44.41;94970.34;10458644;28;1811;-55
2022/06/24 12:27:14;;;;;;;;;;;;;;;25.14;44.65;94968.94;10489928;28;1878;-57
2022/06/24 12:32:15;;;;;;;;;;;;;;;25.11;44.64;94964.25;10455414;28;1922;-56
2022/06/24 12:37:18;;;;;;;;;;;;;;;25.12;44.52;94961.31;10443268;28;1885;-58
2022/06/24 12:42:22;;;;;;;;;;;;;;;25.16;44.79;94966.72;10473764;28;1817;-57
2022/06/24 12:52:43;;;;;;;;;;;;;;;25.16;44.44;94966.72;10471379;28;1975;-52
2022/06/24 12:57:44;;;;;;;;;;;;;;;25.09;44.76;94961.16;10475520;28;1753;-52
2022/06/24 13:02:46;;;;;;;;;;;;;;;25.14;44.70;94971.59;10459507;28;1853;-55
2022/06/24 13:07:47;;;;;;;;;;;;;;;25.14;44.59;94979.53;10473254;28;1752;-54
2022/06/24 13:12:47;;;;;;;;;;;;;;;25.11;44.73;94983.59;10470125;28;1977;-56
2022/06/24 13:17:48;;;;;;;;;;;;;;;25.12;44.61;94993.13;10469057;28;1841;-56
2022/06/24 13:22:49;;;;;;;;;;;;;;;25.12;44.70;95005.59;10453387;28;1839;-52
2022/06/24 13:27:50;;;;;;;;;;;;;;;25.09;45.03;94998.28;10448768;28;1870;-55
2022/06/24 13:32:51;;;;;;;;;;;;;;;25.14;44.94;95016.66;10476032;28;1942;-55
2022/06/24 13:37:52;;;;;;;;;;;;;;;25.10;46.49;95053.63;10474401;28;1811;-57
2022/06/24 13:42:53;;;;;;;;;;;;;;;24.98;48.79;95083.47;10476426;28;1939;-58
2022/06/24 13:47:54;;;;;;;;;;;;;;;24.72;50.88;95130.47;10477323;28;1872;-59
2022/06/24 13:52:55;;;;;;;;;;;;;;;24.78;50.50;95173.50;10475529;28;1910;-59
2022/06/24 13:57:55;;;;;;;;;;;;;;;24.53;51.12;95126.56;10491903;28;1788;-60
2022/06/24 14:02:55;;;;;;;;;;;;;;;24.60;50.60;95050.03;10486620;28;1797;-59
2022/06/24 14:07:56;;;;;;;;;;;;;;;24.67;50.50;95092.72;10463536;28;1884;-60
2022/06/24 14:12:56;;;;;;;;;;;;;;;24.77;49.96;95081.84;10492918;28;2176;-59
2022/06/24 14:17:56;;;;;;;;;;;;;;;24.84;49.51;95047.66;10463637;28;1834;-58
2022/06/24 14:28:15;;;;;;;;;;;;;;;24.87;49.08;95115.97;10477682;28;1961;-58
2022/06/24 14:33:16;;;;;;;;;;;;;;;24.90;49.20;95083.50;10463736;28;1971;-57
2022/06/24 14:43:36;;;;;;;;;;;;;;;24.95;49.04;95051.53;10476825;28;1824;-58
2022/06/24 14:48:36;;;;;;;;;;;;;;;24.99;49.00;95055.09;10494756;28;1883;-60
2022/06/24 14:53:36;;;;;;;;;;;;;;;25.03;48.66;95042.75;10453688;28;1961;-59
2022/06/24 14:58:36;;;;;;;;;;;;;;;25.05;48.79;95043.22;10486290;28;1856;-58
2022/06/24 15:03:37;;;;;;;;;;;;;;;25.07;48.89;95029.63;10482331;28;1882;-57
2022/06/24 15:08:38;;;;;;;;;;;;;;;25.11;49.09;95039.28;10480492;28;1826;-58
2022/06/24 15:13:38;;;;;;;;;;;;;;;24.90;49.46;95027.84;10453416;28;1938;-57
2022/06/24 15:18:38;;;;;;;;;;;;;;;24.85;50.02;95014.78;10455839;28;1984;-58
2022/06/24 15:23:39;;;;;;;;;;;;;;;24.83;50.07;95014.31;10487338;28;1804;-59
2022/06/24 15:28:39;;;;;;;;;;;;;;;24.57;50.69;95009.06;10489472;28;1780;-59
2022/06/24 15:33:40;;;;;;;;;;;;;;;24.56;50.82;94993.47;10474112;28;2212;-57
2022/06/24 15:38:41;;;;;;;;;;;;;;;24.49;50.29;95006.41;10461813;28;1808;-58
2022/06/24 15:43:41;;;;;;;;;;;;;;;24.32;50.37;95012.53;10475133;28;1800;-56
2022/06/24 15:48:41;;;;;;;;;;;;;;;24.30;51.03;95016.59;10478325;28;1797;-59
2022/06/24 15:53:42;;;;;;;;;;;;;;;24.28;50.75;95021.44;10474723;28;2283;-61
2022/06/24 15:58:42;;;;;;;;;;;;;;;24.22;50.60;95026.09;10474792;28;1847;-61
2022/06/24 16:03:44;;;;;;;;;;;;;;;24.18;51.16;95019.88;10455556;28;1862;-61
2022/06/24 16:08:44;;;;;;;;;;;;;;;24.14;51.51;95011.78;10459392;28;1883;-61
2022/06/24 16:13:44;;;;;;;;;;;;;;;24.18;51.92;95018.00;10439122;28;1959;-59
2022/06/24 16:18:45;;;;;;;;;;;;;;;24.25;51.99;95039.50;10459018;28;1877;-58
2022/06/24 16:23:45;;;;;;;;;;;;;;;24.33;52.13;95027.34;10476219;28;1784;-56
2022/06/24 16:28:49;;;;;;;;;;;;;;;24.38;51.98;95021.09;10476702;28;1766;-55
2022/06/24 16:33:49;;;;;;;;;;;;;;;24.42;52.10;95016.75;10472560;28;1821;-55
2022/06/24 16:38:50;;;;;;;;;;;;;;;24.43;52.18;95020.94;10489267;28;1872;-57
2022/06/24 16:43:50;;;;;;;;;;;;;;;24.45;51.97;95024.03;10475400;28;1833;-59
2022/06/24 16:48:51;;;;;;;;;;;;;;;24.47;52.07;95025.28;10472975;28;1934;-58
2022/06/24 16:53:51;;;;;;;;;;;;;;;24.50;52.18;95040.56;10455644;28;1836;-57
2022/06/24 16:58:51;;;;;;;;;;;;;;;24.55;52.29;95053.63;10474233;28;1859;-57
2022/06/24 17:03:52;;;;;;;;;;;;;;;24.57;52.13;95062.03;10479032;28;1824;-57
2022/06/24 17:08:52;;;;;;;;;;;;;;;24.58;51.89;95065.47;10484520;28;1981;-57
2022/06/24 17:13:52;;;;;;;;;;;;;;;24.59;52.02;95073.09;10469434;28;1753;-55
2022/06/24 17:18:54;;;;;;;;;;;;;;;24.59;51.98;95082.91;10473809;28;1939;-57
2022/06/24 17:23:56;;;;;;;;;;;;;;;24.59;52.02;95086.34;10472243;28;1855;-56
2022/06/24 17:28:56;;;;;;;;;;;;;;;24.57;51.99;95083.25;10458519;28;1977;-56
2022/06/24 17:33:57;;;;;;;;;;;;;;;24.55;51.98;95087.28;10457113;28;1891;-57
2022/06/24 17:38:58;;;;;;;;;;;;;;;24.55;52.01;95089.94;10484785;28;1881;-57
2022/06/24 17:43:58;;;;;;;;;;;;;;;24.53;51.79;95089.47;10489629;28;1819;-56
2022/06/24 17:48:58;;;;;;;;;;;;;;;24.55;51.95;95105.84;10456049;28;1915;-56
2022/06/24 17:53:58;;;;;;;;;;;;;;;24.50;51.97;95103.38;10491059;28;1770;-57
2022/06/24 17:58:59;;;;;;;;;;;;;;;24.49;51.85;95115.84;10455642;28;1838;-56
2022/06/24 18:03:59;;;;;;;;;;;;;;;24.47;51.58;95120.66;10483985;28;1854;-57
2022/06/24 18:08:59;;;;;;;;;;;;;;;24.43;51.75;95134.84;10476948;28;1910;-54
2022/06/24 18:14:00;;;;;;;;;;;;;;;24.44;51.63;95136.41;10453187;28;1482;-54
2022/06/24 18:19:00;;;;;;;;;;;;;;;24.41;51.76;95134.38;10469114;28;1859;-57
2022/06/24 18:24:00;;;;;;;;;;;;;;;24.41;51.42;95163.50;10459141;28;1766;-54
2022/06/24 18:29:01;;;;;;;;;;;;;;;24.32;51.42;95202.47;10475173;28;1971;-57
2022/06/24 18:34:02;;;;;;;;;;;;;;;24.19;51.08;95218.19;10479803;28;1914;-56
2022/06/24 18:39:05;;;;;;;;;;;;;;;24.10;50.96;95225.34;10478237;28;1974;-56
2022/06/24 18:44:05;;;;;;;;;;;;;;;24.04;50.55;95236.38;10458825;28;1867;-55
2022/06/24 18:49:07;;;;;;;;;;;;;;;24.02;50.56;95246.47;10461700;28;1987;-55
2022/06/24 18:54:07;;;;;;;;;;;;;;;24.02;50.33;95233.22;10491357;28;1686;-55
2022/06/24 18:59:10;;;;;;;;;;;;;;;23.95;50.08;95236.31;10477162;28;1938;-55
2022/06/24 19:04:10;;;;;;;;;;;;;;;23.95;50.31;95224.94;10477862;28;1788;-54
2022/06/24 19:09:10;;;;;;;;;;;;;;;23.92;50.10;95239.59;10477404;28;1973;-57
2022/06/24 19:14:11;;;;;;;;;;;;;;;23.91;49.95;95245.16;10475743;28;1820;-57
2022/06/24 19:19:11;;;;;;;;;;;;;;;23.90;49.50;95256.84;10472951;28;1801;-57
2022/06/24 19:24:11;;;;;;;;;;;;;;;23.88;49.32;95261.69;10479299;28;1853;-56
2022/06/24 19:29:12;;;;;;;;;;;;;;;23.86;49.17;95285.81;10477541;28;1913;-56
2022/06/24 19:34:12;;;;;;;;;;;;;;;23.85;49.09;95288.75;10476607;28;1802;-53
2022/06/24 19:39:13;;;;;;;;;;;;;;;23.84;49.13;95290.63;10476003;28;1863;-54
2022/06/24 19:44:14;;;;;;;;;;;;;;;23.81;49.15;95301.81;10476136;28;1792;-53
2022/06/24 19:49:15;;;;;;;;;;;;;;;23.81;49.11;95320.34;10494715;28;1906;-56
2022/06/24 19:54:16;;;;;;;;;;;;;;;23.84;49.17;95322.41;10458727;28;1855;-55
2022/06/24 19:59:16;;;;;;;;;;;;;;;23.83;49.20;95349.94;10477047;28;1770;-56
2022/06/24 20:09:35;;;;;;;;;;;;;;;23.75;49.34;95363.91;10492862;28;1918;-56
2022/06/24 20:14:36;;;;;;;;;;;;;;;23.74;48.99;95374.81;10452428;28;1776;-56
2022/06/24 20:19:37;;;;;;;;;;;;;;;23.69;49.01;95375.69;10474766;28;1835;-58
2022/06/24 20:24:39;;;;;;;;;;;;;;;23.66;49.12;95378.19;10458524;28;1811;-57
2022/06/24 20:29:39;;;;;;;;;;;;;;;23.62;48.93;95391.22;10453490;28;1926;-56
2022/06/24 20:34:40;;;;;;;;;;;;;;;23.57;49.19;95399.28;10456742;28;1856;-56
2022/06/24 20:39:40;;;;;;;;;;;;;;;23.56;49.21;95410.13;10473272;28;1898;-55
2022/06/24 20:44:40;;;;;;;;;;;;;;;23.55;49.24;95422.63;10490472;28;1796;-56
2022/06/24 20:49:41;;;;;;;;;;;;;;;23.56;49.13;95420.72;10474274;28;1917;-53
2022/06/24 20:54:41;;;;;;;;;;;;;;;23.53;49.00;95419.50;10472305;28;1891;-53
2022/06/24 20:59:42;;;;;;;;;;;;;;;23.52;48.96;95431.13;10470931;28;1792;-57
2022/06/24 21:04:43;;;;;;;;;;;;;;;23.53;49.12;95432.72;10476953;28;1855;-56
2022/06/24 21:09:44;;;;;;;;;;;;;;;23.54;49.13;95439.56;10477585;28;1910;-50
2022/06/24 21:14:44;;;;;;;;;;;;;;;23.54;49.05;95446.69;10472716;28;1825;-58
2022/06/24 21:19:45;;;;;;;;;;;;;;;23.53;49.00;95443.28;10485293;28;1897;-56
2022/06/24 21:24:46;;;;;;;;;;;;;;;23.53;48.90;95459.16;10459185;28;1816;-56
2022/06/24 21:29:48;;;;;;;;;;;;;;;23.52;49.07;95465.53;10473332;28;1921;-56
2022/06/24 21:34:49;;;;;;;;;;;;;;;23.51;48.87;95463.97;10471991;28;1954;-58
2022/06/24 21:39:49;;;;;;;;;;;;;;;23.50;48.87;95480.13;10467025;28;1807;-55
2022/06/24 21:44:49;;;;;;;;;;;;;;;23.49;48.96;95482.00;10452668;28;1822;-55
2022/06/24 21:49:50;;;;;;;;;;;;;;;23.53;49.12;95487.47;10456860;28;1910;-53
2022/06/24 21:54:51;;;;;;;;;;;;;;;23.56;48.95;95485.00;10469503;28;1848;-53
2022/06/24 21:59:51;;;;;;;;;;;;;;;23.56;48.83;95490.31;10480161;28;1745;-53
2022/06/24 22:04:51;;;;;;;;;;;;;;;23.11;48.90;95494.69;10480522;28;1797;-57
2022/06/24 22:09:52;;;;;;;;;;;;;;;22.03;50.64;95486.59;10477718;28;1910;-54
2022/06/24 22:14:52;;;;;;;;;;;;;;;21.59;52.29;95487.78;10490580;28;1784;-57
2022/06/24 22:19:52;;;;;;;;;;;;;;;21.08;53.48;95490.28;10470629;28;1693;-58
2022/06/24 22:24:53;;;;;;;;;;;;;;;20.85;54.02;95498.19;10474753;28;1834;-58
2022/06/24 22:29:53;;;;;;;;;;;;;;;20.77;54.31;95491.66;10471734;28;1981;-54
2022/06/24 22:34:53;;;;;;;;;;;;;;;20.69;54.57;95489.66;10484773;28;1726;-53
2022/06/24 22:39:54;;;;;;;;;;;;;;;20.65;55.13;95491.28;10455392;28;1867;-56
2022/06/24 22:44:54;;;;;;;;;;;;;;;20.98;54.66;95479.03;10475464;28;1863;-54
2022/06/24 22:49:54;;;;;;;;;;;;;;;21.52;53.09;95478.63;10481405;28;1980;-55
2022/06/24 22:54:55;;;;;;;;;;;;;;;21.90;52.34;95480.22;10475798;28;1817;-52
2022/06/24 22:59:55;;;;;;;;;;;;;;;22.17;51.51;95479.50;10489933;28;1905;-57
2022/06/24 23:04:55;;;;;;;;;;;;;;;22.38;50.74;95484.13;10496422;28;1824;-56
2022/06/24 23:09:56;;;;;;;;;;;;;;;22.54;50.66;95488.09;10479088;28;1910;-56
2022/06/24 23:14:56;;;;;;;;;;;;;;;22.68;50.08;95493.41;10448808;28;1815;-54
2022/06/24 23:19:57;;;;;;;;;;;;;;;22.80;49.61;95493.69;10466720;28;1995;-55
2022/06/24 23:24:57;;;;;;;;;;;;;;;22.90;49.78;95500.66;10492535;28;1894;-52
2022/06/24 23:29:58;;;;;;;;;;;;;;;22.97;49.54;95496.56;10490814;28;1949;-55
2022/06/24 23:34:58;;;;;;;;;;;;;;;23.05;49.20;95493.22;10461827;28;1746;-53
2022/06/24 23:39:58;;;;;;;;;;;;;;;23.11;49.06;95497.31;10492260;28;1867;-55
2022/06/24 23:44:59;;;;;;;;;;;;;;;23.18;48.95;95495.06;10491010;28;1799;-57
2022/06/24 23:55:18;;;;;;;;;;;;;;;23.27;48.59;95495.94;10489985;28;1827;-57
